Time;durP1;ratioP1;P1;durP2;ratioP2;P2;SDS_P1;SDS_P2;PMS_P1;PMS_P2;Temp;Humidity;BMP_temperature;BMP_pressure;BME280_temperature;BME280_humidity;BME280_pressure;Samples;Min_cycle;Max_cycle;Signal;HPM_P1;HPM_P2
2023/08/16 00:01:58;;;;;;;8.48;4.82;;;;;;;25.03;50.05;102044.91;5051226;28;20472;-71
2023/08/16 00:04:23;;;;;;;8.45;5.32;;;;;;;24.77;50.56;102041.78;5050149;28;20141;-72
2023/08/16 00:06:49;;;;;;;8.40;5.25;;;;;;;24.77;50.36;102044.47;5046590;28;20021;-72
2023/08/16 00:09:16;;;;;;;8.23;5.38;;;;;;;24.71;51.18;102044.75;5069728;28;20032;-72
2023/08/16 00:11:41;;;;;;;8.82;4.90;;;;;;;24.64;51.57;102043.34;5054820;28;20488;-71
2023/08/16 00:14:07;;;;;;;12.50;5.13;;;;;;;24.64;51.21;102043.34;5056361;28;20124;-71
2023/08/16 00:16:32;;;;;;;13.85;5.75;;;;;;;24.70;51.41;102048.38;5055433;28;20016;-71
2023/08/16 00:18:58;;;;;;;10.32;5.50;;;;;;;24.94;50.69;102048.94;5053980;28;20028;-71
2023/08/16 00:21:24;;;;;;;8.00;4.93;;;;;;;25.01;50.30;102049.47;5051341;28;20029;-73
2023/08/16 00:23:49;;;;;;;13.55;6.20;;;;;;;24.79;50.44;102042.56;5035016;28;20021;-71
2023/08/16 00:26:15;;;;;;;9.75;4.47;;;;;;;25.11;49.71;102044.50;5047870;28;20025;-71
2023/08/16 00:28:42;;;;;;;11.43;5.32;;;;;;;25.01;50.24;102038.78;5050050;28;20040;-71
2023/08/16 00:31:07;;;;;;;14.88;5.68;;;;;;;24.93;50.56;102043.66;5054568;28;20016;-71
2023/08/16 00:33:33;;;;;;;10.10;5.47;;;;;;;24.53;51.71;102047.38;5055509;28;20020;-72
2023/08/16 00:35:58;;;;;;;13.15;5.60;;;;;;;24.50;52.32;102052.88;5054877;28;20434;-72
2023/08/16 00:38:24;;;;;;;7.82;4.70;;;;;;;24.89;51.94;102059.00;5053495;28;20577;-72
2023/08/16 00:40:50;;;;;;;8.77;5.53;;;;;;;25.22;50.72;102059.06;5055492;28;20024;-72
2023/08/16 00:43:16;;;;;;;10.20;4.78;;;;;;;25.28;50.52;102048.97;5072264;28;20051;-72
2023/08/16 00:45:44;;;;;;;10.88;5.28;;;;;;;24.70;51.40;102053.72;5054727;28;20028;-72
2023/08/16 00:48:09;;;;;;;8.27;4.32;;;;;;;24.86;52.43;102059.16;5054581;28;20012;-72
2023/08/16 00:50:35;;;;;;;11.30;4.72;;;;;;;25.43;49.68;102060.69;5072493;28;20078;-72
2023/08/16 00:53:01;;;;;;;8.90;4.95;;;;;;;25.01;50.93;102058.34;5053175;28;20059;-72
2023/08/16 00:55:26;;;;;;;7.15;4.43;;;;;;;24.84;51.03;102061.91;5073442;28;20020;-72
2023/08/16 00:57:53;;;;;;;10.10;4.70;;;;;;;24.98;50.56;102057.66;5058423;28;20137;-72
2023/08/16 01:00:19;;;;;;;9.05;5.00;;;;;;;25.12;50.28;102070.31;5091846;28;20027;-72
2023/08/16 01:02:44;;;;;;;9.63;5.03;;;;;;;25.26;50.05;102057.06;5087229;28;20017;-72
2023/08/16 01:05:10;;;;;;;8.23;4.95;;;;;;;25.06;50.90;102063.47;5072041;28;20123;-72
2023/08/16 01:07:35;;;;;;;9.55;5.18;;;;;;;24.96;50.87;102064.88;5076128;28;20483;-72
2023/08/16 01:10:01;;;;;;;8.82;4.78;;;;;;;25.72;49.37;102064.47;5091628;28;20520;-72
2023/08/16 01:12:35;;;;;;;8.70;4.80;;;;;;;25.68;48.98;102071.81;5091444;28;20024;-72
2023/08/16 01:15:08;;;;;;;9.57;5.32;;;;;;;25.12;50.38;102060.47;5090935;28;20109;-72
2023/08/16 01:17:33;;;;;;;10.45;4.95;;;;;;;25.34;49.52;102065.59;5083747;28;20127;-71
2023/08/16 01:20:00;;;;;;;12.18;4.60;;;;;;;25.33;49.52;102073.69;5090977;28;20034;-73
2023/08/16 01:22:37;;;;;;;7.85;4.85;;;;;;;24.92;50.64;102074.00;5090857;28;20028;-72
2023/08/16 01:25:06;;;;;;;7.63;5.20;;;;;;;24.86;50.86;102080.53;5090694;28;20035;-71
2023/08/16 01:27:32;;;;;;;6.82;4.53;;;;;;;25.10;50.75;102081.09;5089953;28;20019;-71
2023/08/16 01:29:58;;;;;;;8.00;4.90;;;;;;;24.87;50.96;102083.13;5077689;28;20103;-72
2023/08/16 01:32:24;;;;;;;12.07;5.22;;;;;;;24.96;50.95;102080.94;5076305;28;20066;-72
2023/08/16 01:34:49;;;;;;;6.60;4.47;;;;;;;25.19;50.05;102088.63;5089602;28;20024;-72
2023/08/16 01:37:15;;;;;;;8.25;4.78;;;;;;;25.30;49.78;102089.88;5089023;28;20778;-72
2023/08/16 01:39:40;;;;;;;7.55;4.30;;;;;;;25.36;49.48;102089.59;5089924;28;20035;-72
2023/08/16 01:42:08;;;;;;;9.68;5.25;;;;;;;25.34;49.10;102099.50;5090170;28;20031;-72
2023/08/16 01:44:35;;;;;;;8.60;4.82;;;;;;;24.88;51.17;102090.22;5092495;28;20047;-72
2023/08/16 01:47:01;;;;;;;7.55;4.55;;;;;;;25.13;50.00;102099.66;5090907;28;20428;-72
2023/08/16 01:49:28;;;;;;;8.70;5.07;;;;;;;24.51;50.91;102089.34;5091040;28;20016;-72
2023/08/16 01:51:53;;;;;;;8.65;4.88;;;;;;;24.85;50.38;102081.47;5089946;28;20024;-72
2023/08/16 01:54:19;;;;;;;13.15;5.82;;;;;;;23.97;52.92;102085.72;5090438;28;20391;-72
2023/08/16 01:56:44;;;;;;;8.73;4.40;;;;;;;24.67;51.34;102083.28;5089527;28;20031;-72
2023/08/16 01:59:10;;;;;;;10.07;5.18;;;;;;;23.94;52.80;102091.22;5090582;28;20056;-72
2023/08/16 02:01:35;;;;;;;7.60;5.05;;;;;;;24.71;51.79;102087.53;5090349;28;20092;-72
2023/08/16 02:04:01;;;;;;;10.20;5.30;;;;;;;24.29;51.51;102092.22;5089567;28;20028;-72
2023/08/16 02:06:27;;;;;;;6.82;4.47;;;;;;;24.29;52.17;102091.31;5090315;28;20027;-72
2023/08/16 02:08:53;;;;;;;12.18;5.45;;;;;;;24.29;52.19;102100.22;5087401;28;20103;-72
2023/08/16 02:11:19;;;;;;;7.50;5.22;;;;;;;24.27;52.57;102102.09;5072800;28;20563;-72
2023/08/16 02:13:45;;;;;;;9.40;5.70;;;;;;;24.33;51.96;102100.94;5072243;28;20111;-72
2023/08/16 02:16:10;;;;;;;9.85;5.50;;;;;;;24.26;52.14;102096.81;5088657;28;20150;-71
2023/08/16 02:18:36;;;;;;;7.93;5.43;;;;;;;24.12;52.45;102098.34;5089543;28;20024;-71
2023/08/16 02:21:01;;;;;;;10.27;5.35;;;;;;;24.20;52.41;102101.50;5090790;28;20065;-71
2023/08/16 02:23:27;;;;;;;7.07;4.95;;;;;;;23.94;53.31;102097.41;5089872;28;20054;-72
2023/08/16 02:25:53;;;;;;;8.93;5.43;;;;;;;24.27;52.11;102098.56;5087294;28;20032;-72
2023/08/16 02:28:19;;;;;;;8.70;4.57;;;;;;;23.78;54.04;102102.56;5086828;28;20036;-71
2023/08/16 02:30:44;;;;;;;8.05;5.35;;;;;;;24.18;52.97;102099.84;5069454;28;20051;-72
2023/08/16 02:33:10;;;;;;;8.70;5.38;;;;;;;23.58;54.54;102100.81;5069512;28;20054;-71
2023/08/16 02:35:38;;;;;;;9.20;5.70;;;;;;;23.79;54.60;102098.94;5081661;28;20050;-71
2023/08/16 02:38:03;;;;;;;8.48;5.53;;;;;;;24.18;52.94;102100.72;5090413;28;20028;-72
2023/08/16 02:40:28;;;;;;;7.43;5.00;;;;;;;23.87;53.12;102096.78;5090565;28;20034;-71
2023/08/16 02:42:54;;;;;;;9.90;5.88;;;;;;;23.98;53.22;102093.66;5091099;28;20060;-72
2023/08/16 02:45:19;;;;;;;11.40;5.68;;;;;;;24.19;52.53;102097.13;5089429;28;20028;-71
2023/08/16 02:47:47;;;;;;;9.57;5.40;;;;;;;24.57;51.41;102090.84;5089332;28;20027;-71
2023/08/16 02:50:12;;;;;;;9.02;5.50;;;;;;;24.75;50.94;102093.59;5090149;28;20480;-71
2023/08/16 02:52:38;;;;;;;10.57;5.45;;;;;;;24.55;51.22;102104.31;5079386;28;20029;-71
2023/08/16 02:55:04;;;;;;;9.32;5.93;;;;;;;24.03;52.90;102109.47;5071371;28;20032;-72
2023/08/16 02:57:29;;;;;;;7.63;4.65;;;;;;;24.10;52.80;102102.03;5086276;28;20479;-71
2023/08/16 02:59:55;;;;;;;9.93;5.55;;;;;;;24.24;52.65;102099.56;5052280;28;20028;-71
2023/08/16 03:02:20;;;;;;;12.20;6.30;;;;;;;24.34;52.34;102105.34;5053246;28;20132;-71
2023/08/16 03:04:46;;;;;;;8.82;4.97;;;;;;;24.60;51.85;102106.72;5069461;28;20020;-71
2023/08/16 03:07:11;;;;;;;12.70;5.80;;;;;;;24.30;51.75;102103.75;5048659;28;20025;-71
2023/08/16 03:09:38;;;;;;;11.38;5.93;;;;;;;24.06;52.87;102112.00;5052702;28;20020;-71
2023/08/16 03:12:04;;;;;;;8.40;5.15;;;;;;;24.30;52.00;102114.44;5053071;28;20025;-71
2023/08/16 03:14:30;;;;;;;12.00;5.88;;;;;;;23.97;52.65;102107.94;5052433;28;20021;-72
2023/08/16 03:16:56;;;;;;;12.55;5.45;;;;;;;24.21;51.86;102111.25;5051789;28;20036;-71
2023/08/16 03:19:22;;;;;;;8.95;5.05;;;;;;;24.47;51.57;102111.81;5052373;28;20502;-72
2023/08/16 03:21:47;;;;;;;9.60;5.18;;;;;;;24.34;51.10;102110.69;5049811;28;20028;-71
2023/08/16 03:24:13;;;;;;;10.40;5.68;;;;;;;24.24;51.52;102110.25;5069529;28;20032;-71
2023/08/16 03:26:38;;;;;;;6.80;4.47;;;;;;;24.51;50.63;102113.41;5051326;28;20174;-71
2023/08/16 03:29:04;;;;;;;11.35;6.70;;;;;;;23.91;52.11;102120.72;5052726;28;20073;-71
2023/08/16 03:31:30;;;;;;;11.57;6.38;;;;;;;23.97;52.09;102123.09;5069597;28;20024;-72
2023/08/16 03:33:55;;;;;;;8.85;5.10;;;;;;;23.84;52.60;102123.63;5069209;28;20024;-72
2023/08/16 03:36:21;;;;;;;7.55;4.95;;;;;;;23.87;52.93;102131.50;5069673;28;20181;-71
2023/08/16 03:38:47;;;;;;;5.85;4.25;;;;;;;23.86;52.18;102127.13;5051656;28;20028;-71
2023/08/16 03:41:12;;;;;;;6.13;3.80;;;;;;;24.36;50.35;102119.50;5069359;28;20025;-71
2023/08/16 03:43:38;;;;;;;5.03;3.50;;;;;;;24.02;51.35;102119.28;5051966;28;20021;-71
2023/08/16 03:46:04;;;;;;;4.00;2.65;;;;;;;24.29;50.25;102123.38;5069404;28;20024;-71
2023/08/16 03:48:30;;;;;;;5.95;3.80;;;;;;;23.87;50.85;102123.47;5051285;28;20047;-71
2023/08/16 03:50:55;;;;;;;7.13;3.90;;;;;;;23.76;52.00;102124.94;5070015;28;20032;-71
2023/08/16 03:53:21;;;;;;;7.65;4.40;;;;;;;23.52;51.48;102123.28;5052707;28;20021;-72
2023/08/16 03:55:46;;;;;;;9.73;5.78;;;;;;;23.64;52.12;102126.34;5047955;28;20024;-70
2023/08/16 03:58:12;;;;;;;11.35;6.20;;;;;;;23.90;51.95;102127.84;5063184;28;20145;-72
2023/08/16 04:00:39;;;;;;;10.45;5.70;;;;;;;23.91;52.48;102123.41;5089232;28;20368;-71
2023/08/16 04:03:04;;;;;;;14.10;6.35;;;;;;;23.75;52.30;102129.38;5087745;28;20055;-71
2023/08/16 04:05:30;;;;;;;10.40;6.40;;;;;;;24.14;51.19;102130.31;5086284;28;20081;-71
2023/08/16 04:07:56;;;;;;;9.57;5.35;;;;;;;24.11;50.70;102131.34;5086460;28;20035;-71
2023/08/16 04:10:21;;;;;;;10.95;6.70;;;;;;;23.90;51.72;102135.88;5087847;28;20020;-72
2023/08/16 04:12:47;;;;;;;9.30;6.28;;;;;;;23.92;51.29;102135.78;5087482;28;20593;-72
2023/08/16 04:15:12;;;;;;;8.98;6.55;;;;;;;23.94;51.45;102133.94;5089769;28;20388;-71
2023/08/16 04:17:39;;;;;;;9.85;6.30;;;;;;;24.12;50.76;102127.72;5088308;28;20024;-71
2023/08/16 04:20:08;;;;;;;10.68;5.38;;;;;;;24.21;50.88;102132.63;5089331;28;20109;-72
2023/08/16 04:22:36;;;;;;;11.07;5.78;;;;;;;24.15;51.25;102132.94;5088678;28;20059;-72
2023/08/16 04:25:03;;;;;;;11.98;5.82;;;;;;;23.92;51.00;102133.13;5085640;28;20024;-72
2023/08/16 04:27:29;;;;;;;9.13;5.32;;;;;;;23.94;50.93;102133.94;5088529;28;20059;-72
2023/08/16 04:29:54;;;;;;;11.70;6.00;;;;;;;23.72;51.78;102129.53;5087796;28;20082;-72
2023/08/16 04:32:20;;;;;;;10.25;5.90;;;;;;;23.57;52.90;102127.56;5088758;28;20118;-72
2023/08/16 04:34:45;;;;;;;9.52;6.03;;;;;;;23.58;52.56;102131.97;5087695;28;20092;-72
2023/08/16 04:37:11;;;;;;;10.43;6.13;;;;;;;23.99;51.56;102126.59;5088143;28;20036;-72
2023/08/16 04:39:36;;;;;;;11.88;6.10;;;;;;;23.71;51.58;102128.69;5071047;28;20028;-72
2023/08/16 04:42:02;;;;;;;9.25;6.03;;;;;;;23.78;51.45;102131.03;5087670;28;20154;-72
2023/08/16 04:44:27;;;;;;;11.70;5.72;;;;;;;23.71;52.23;102122.44;5089127;28;20089;-71
2023/08/16 04:46:53;;;;;;;12.65;5.35;;;;;;;23.82;52.08;102129.97;5088607;28;20103;-72
2023/08/16 04:49:18;;;;;;;9.40;5.32;;;;;;;23.65;52.17;102130.75;5087948;28;20028;-72
2023/08/16 04:51:44;;;;;;;10.35;6.18;;;;;;;23.78;52.05;102139.94;5086639;28;20016;-72
2023/08/16 04:54:09;;;;;;;9.15;5.70;;;;;;;23.57;52.47;102135.56;5086761;28;20035;-72
2023/08/16 04:56:36;;;;;;;9.20;5.45;;;;;;;23.48;52.49;102132.38;5086321;28;20086;-70
2023/08/16 04:59:01;;;;;;;11.23;5.30;;;;;;;23.59;52.73;102128.34;5085723;28;20558;-72
2023/08/16 05:01:27;;;;;;;11.25;6.25;;;;;;;23.43;52.99;102134.38;5092641;28;20107;-72
2023/08/16 05:03:53;;;;;;;13.43;5.72;;;;;;;23.52;53.39;102127.75;5071576;28;20013;-72
2023/08/16 05:06:19;;;;;;;9.88;5.30;;;;;;;23.57;53.19;102130.22;5074249;28;20237;-72
2023/08/16 05:08:44;;;;;;;10.75;5.57;;;;;;;23.31;55.37;102134.91;5092370;28;20035;-71
2023/08/16 05:11:10;;;;;;;14.18;5.65;;;;;;;23.40;55.85;102137.16;5086386;28;20031;-72
2023/08/16 05:13:35;;;;;;;11.85;5.20;;;;;;;23.75;55.26;102139.19;5087210;28;20031;-71
2023/08/16 05:16:01;;;;;;;9.32;5.30;;;;;;;23.86;54.75;102143.13;5082365;28;20042;-72
2023/08/16 05:18:26;;;;;;;10.07;5.63;;;;;;;23.38;57.25;102142.56;5092038;28;20030;-71
2023/08/16 05:20:55;;;;;;;8.45;4.65;;;;;;;23.77;55.83;102140.88;5089235;28;20111;-72
2023/08/16 05:23:21;;;;;;;7.80;4.70;;;;;;;24.00;54.92;102141.66;5077057;28;20052;-72
2023/08/16 05:25:46;;;;;;;7.97;4.90;;;;;;;24.12;54.77;102149.09;5089510;28;20032;-72
2023/08/16 05:28:11;;;;;;;8.80;4.75;;;;;;;24.07;55.06;102145.78;5092077;28;20028;-72
2023/08/16 05:30:37;;;;;;;7.60;4.63;;;;;;;23.85;55.65;102148.50;5089465;28;20024;-71
2023/08/16 05:33:03;;;;;;;8.93;5.57;;;;;;;24.38;53.67;102144.31;5092847;28;20038;-72
2023/08/16 05:35:33;;;;;;;6.65;4.57;;;;;;;24.27;54.73;102149.31;5090920;28;20454;-72
2023/08/16 05:37:58;;;;;;;9.82;4.75;;;;;;;24.33;54.92;102146.34;5092624;28;20076;-73
2023/08/16 05:40:24;;;;;;;7.03;4.68;;;;;;;24.18;54.96;102148.81;5077468;28;20139;-72
2023/08/16 05:42:49;;;;;;;6.00;4.40;;;;;;;24.18;54.79;102148.81;5090882;28;20028;-72
2023/08/16 05:45:14;;;;;;;8.25;4.35;;;;;;;23.84;56.11;102158.34;5091995;28;20036;-72
2023/08/16 05:47:40;;;;;;;6.70;4.20;;;;;;;24.64;53.68;102155.59;5085488;28;20051;-71
2023/08/16 05:50:06;;;;;;;9.32;4.43;;;;;;;24.95;52.76;102151.41;5071290;28;20028;-71
2023/08/16 05:52:31;;;;;;;5.75;4.22;;;;;;;25.25;52.22;102157.00;5080697;28;20017;-71
2023/08/16 05:54:56;;;;;;;9.30;4.57;;;;;;;24.79;52.39;102168.22;5071065;28;20481;-72
2023/08/16 05:57:22;;;;;;;6.53;4.00;;;;;;;24.74;52.66;102164.88;5077792;28;20027;-71
2023/08/16 05:59:47;;;;;;;7.57;4.03;;;;;;;25.08;51.98;102165.88;5070569;28;20034;-72
2023/08/16 06:02:13;;;;;;;6.30;3.38;;;;;;;25.16;52.04;102169.03;5052157;28;20048;-72
2023/08/16 06:04:38;;;;;;;8.40;4.72;;;;;;;24.79;52.79;102170.88;5052417;28;20086;-72
2023/08/16 06:07:04;;;;;;;8.45;4.55;;;;;;;24.63;53.30;102172.56;5051662;28;20017;-72
2023/08/16 06:09:30;;;;;;;7.13;4.60;;;;;;;24.51;53.31;102180.22;5051575;28;20028;-70
2023/08/16 06:11:55;;;;;;;5.63;3.67;;;;;;;24.72;53.22;102180.16;5052440;28;20463;-71
2023/08/16 06:14:21;;;;;;;10.20;4.70;;;;;;;24.48;53.39;102177.69;5053827;28;20039;-72
2023/08/16 06:16:46;;;;;;;5.65;3.85;;;;;;;24.96;51.76;102171.84;5051583;28;20028;-72
2023/08/16 06:19:13;;;;;;;9.75;5.07;;;;;;;25.04;51.89;102180.38;5070608;28;20396;-73
2023/08/16 06:21:39;;;;;;;7.28;4.78;;;;;;;24.85;52.18;102181.28;5070458;28;20048;-72
2023/08/16 06:24:05;;;;;;;9.32;4.47;;;;;;;25.13;51.70;102185.25;5052808;28;20115;-72
2023/08/16 06:26:31;;;;;;;7.10;4.68;;;;;;;25.01;51.88;102188.53;5070626;28;20108;-73
2023/08/16 06:28:57;;;;;;;8.35;3.92;;;;;;;25.33;51.62;102180.72;5049911;28;20016;-73
2023/08/16 06:31:22;;;;;;;9.23;4.88;;;;;;;25.65;50.18;102180.84;5051995;28;20032;-74
2023/08/16 06:33:48;;;;;;;12.00;5.13;;;;;;;25.69;50.42;102171.72;5052070;28;20066;-72
2023/08/16 06:36:13;;;;;;;11.52;4.75;;;;;;;25.22;51.60;102179.44;5053065;28;20480;-73
2023/08/16 06:38:39;;;;;;;8.25;4.05;;;;;;;25.72;50.12;102177.78;5068178;28;20028;-73
2023/08/16 06:41:04;;;;;;;5.93;4.20;;;;;;;25.51;51.14;102179.78;5053345;28;20017;-73
2023/08/16 06:43:30;;;;;;;7.70;4.45;;;;;;;25.21;52.12;102183.06;5051466;28;20484;-73
2023/08/16 06:45:56;;;;;;;5.95;4.18;;;;;;;25.66;51.38;102187.94;5052370;28;20034;-73
2023/08/16 06:48:22;;;;;;;5.40;3.75;;;;;;;25.95;50.80;102178.34;5064095;28;20082;-72
2023/08/16 06:50:48;;;;;;;7.68;3.95;;;;;;;26.02;50.80;102184.28;5048041;28;20036;-72
2023/08/16 06:53:14;;;;;;;7.05;4.13;;;;;;;25.83;51.64;102182.56;5051492;28;20082;-72
2023/08/16 06:55:39;;;;;;;7.07;3.95;;;;;;;24.98;53.42;102191.38;5049530;28;20653;-73
2023/08/16 06:58:05;;;;;;;6.10;4.15;;;;;;;25.84;51.65;102181.63;5053061;28;20040;-72
2023/08/16 07:00:32;;;;;;;6.03;4.38;;;;;;;26.35;50.95;102186.03;5071362;28;20040;-73
2023/08/16 07:03:02;;;;;;;6.07;3.90;;;;;;;26.38;50.95;102189.44;5083590;28;20051;-73
2023/08/16 07:05:27;;;;;;;7.85;4.78;;;;;;;26.36;50.96;102190.47;5088945;28;20028;-72
2023/08/16 07:07:53;;;;;;;7.82;4.22;;;;;;;26.10;51.64;102198.13;5088936;28;20101;-72
2023/08/16 07:10:18;;;;;;;9.50;4.03;;;;;;;25.85;52.65;102187.84;5089769;28;20559;-73
2023/08/16 07:12:44;;;;;;;5.50;3.78;;;;;;;27.53;49.45;102190.91;5087006;28;20035;-72
2023/08/16 07:15:13;;;;;;;6.15;3.38;;;;;;;28.84;47.14;102190.75;5088895;28;20032;-72
2023/08/16 07:17:39;;;;;;;6.40;3.63;;;;;;;29.10;44.40;102193.53;5088771;28;20024;-73
2023/08/16 07:20:07;;;;;;;4.32;3.30;;;;;;;28.80;43.53;102194.63;5085123;28;20020;-72
2023/08/16 07:22:37;;;;;;;6.00;3.30;;;;;;;28.35;44.00;102194.78;5073088;28;20020;-72
2023/08/16 07:25:04;;;;;;;3.78;3.03;;;;;;;27.93;45.18;102189.34;5089143;28;20569;-72
2023/08/16 07:27:30;;;;;;;6.45;3.47;;;;;;;27.50;46.17;102191.97;5087465;28;20028;-73
2023/08/16 07:29:55;;;;;;;4.07;2.97;;;;;;;27.89;45.68;102190.47;5088252;28;20051;-72
2023/08/16 07:32:21;;;;;;;8.18;3.33;;;;;;;28.33;44.58;102201.22;5088789;28;20447;-73
2023/08/16 07:34:46;;;;;;;4.38;3.10;;;;;;;27.90;45.87;102194.91;5088029;28;20047;-72
2023/08/16 07:37:14;;;;;;;5.80;2.85;;;;;;;28.85;44.18;102197.88;5088119;28;20434;-71
2023/08/16 07:39:40;;;;;;;4.43;3.10;;;;;;;28.61;44.30;102195.78;5074826;28;20468;-71
2023/08/16 07:42:09;;;;;;;4.53;2.97;;;;;;;29.06;43.20;102205.47;5089100;28;20028;-71
2023/08/16 07:44:38;;;;;;;5.68;3.00;;;;;;;29.34;42.96;102203.63;5087961;28;20020;-70
2023/08/16 07:47:03;;;;;;;3.80;2.92;;;;;;;29.74;42.00;102198.16;5089724;28;20032;-71
2023/08/16 07:49:29;;;;;;;3.08;2.72;;;;;;;29.78;41.50;102194.28;5078304;28;20451;-71
2023/08/16 07:51:58;;;;;;;4.05;2.83;;;;;;;30.73;40.39;102204.56;5089297;28;20028;-71
2023/08/16 07:54:24;;;;;;;5.72;2.95;;;;;;;31.67;38.52;102204.69;5087718;28;20027;-71
2023/08/16 07:56:52;;;;;;;4.30;2.45;;;;;;;31.75;37.87;102202.25;5088297;28;20031;-71
2023/08/16 07:59:17;;;;;;;3.65;2.35;;;;;;;31.95;37.40;102204.22;5088381;28;20059;-71
2023/08/16 08:01:43;;;;;;;2.83;2.05;;;;;;;33.44;35.64;102208.28;5087826;28;20036;-71
2023/08/16 08:04:09;;;;;;;4.85;2.70;;;;;;;34.05;33.28;102212.91;5088507;28;20016;-71
2023/08/16 08:06:37;;;;;;;3.67;1.90;;;;;;;33.44;32.53;102213.69;5085258;28;20495;-71
2023/08/16 08:09:03;;;;;;;3.10;1.45;;;;;;;33.97;33.54;102205.44;5086603;28;20036;-71
2023/08/16 08:11:29;;;;;;;3.55;1.50;;;;;;;34.06;31.53;102211.03;5088689;28;20035;-71
2023/08/16 08:13:55;;;;;;;1.73;1.30;;;;;;;34.14;31.12;102211.22;5085710;28;20139;-71
2023/08/16 08:16:20;;;;;;;2.25;1.70;;;;;;;34.11;31.34;102216.91;5089152;28;20048;-71
2023/08/16 08:18:46;;;;;;;2.15;1.60;;;;;;;35.34;30.70;102221.13;5087869;28;20032;-71
2023/08/16 08:21:11;;;;;;;2.35;1.40;;;;;;;36.07;28.91;102216.94;5088357;28;20031;-71
2023/08/16 08:23:37;;;;;;;7.00;1.45;;;;;;;35.95;28.83;102218.97;5086879;28;20028;-71
2023/08/16 08:26:02;;;;;;;1.88;1.27;;;;;;;35.99;28.28;102218.50;5088477;28;20082;-72
2023/08/16 08:28:28;;;;;;;3.25;1.30;;;;;;;36.90;28.27;102225.00;5089227;28;20392;-71
2023/08/16 08:30:53;;;;;;;2.38;1.02;;;;;;;36.62;27.80;102230.50;5087149;28;20507;-72
2023/08/16 08:33:19;;;;;;;1.77;1.20;;;;;;;35.28;28.96;102227.97;5092371;28;20032;-72
2023/08/16 08:35:46;;;;;;;2.80;1.27;;;;;;;36.30;28.99;102229.09;5091383;28;20024;-71
2023/08/16 08:38:12;;;;;;;2.45;1.17;;;;;;;36.77;27.57;102227.25;5091079;28;20478;-72
2023/08/16 08:40:37;;;;;;;2.38;1.30;;;;;;;36.93;27.08;102235.63;5091565;28;20097;-71
2023/08/16 08:43:06;;;;;;;1.08;1.02;;;;;;;36.16;27.94;102227.75;5090107;28;20113;-72
2023/08/16 08:45:32;;;;;;;1.40;1.00;;;;;;;36.30;27.39;102223.66;5091726;28;20024;-71
2023/08/16 08:47:59;;;;;;;2.45;0.90;;;;;;;36.84;26.61;102228.38;5091051;28;20254;-72
2023/08/16 08:50:27;;;;;;;0.75;0.57;;;;;;;37.65;26.31;102235.47;5091582;28;20028;-72
2023/08/16 08:52:56;;;;;;;2.88;1.17;;;;;;;38.25;24.83;102236.53;5090539;28;20012;-72
2023/08/16 08:55:23;;;;;;;0.80;0.70;;;;;;;38.33;25.11;102235.66;5090190;28;20488;-72
2023/08/16 08:57:50;;;;;;;0.90;0.52;;;;;;;38.71;24.01;102238.03;5077666;28;20044;-72
2023/08/16 09:00:20;;;;;;;1.92;0.60;;;;;;;37.75;24.46;102250.88;5092238;28;20036;-72
2023/08/16 09:02:49;;;;;;;1.70;0.93;;;;;;;37.25;25.70;102252.38;5081587;28;20347;-72
2023/08/16 09:05:18;;;;;;;2.08;0.52;;;;;;;38.19;23.00;102248.06;5070771;28;20107;-73
2023/08/16 09:07:44;;;;;;;1.30;0.57;;;;;;;37.88;24.40;102251.34;5085754;28;20115;-72
2023/08/16 09:10:11;;;;;;;0.75;0.75;;;;;;;38.33;23.66;102243.88;5090551;28;20031;-72
2023/08/16 09:12:37;;;;;;;0.82;0.52;;;;;;;38.72;23.33;102242.44;5088976;28;20057;-71
2023/08/16 09:15:04;;;;;;;2.50;0.80;;;;;;;38.32;25.82;102253.06;5075586;28;20047;-72
2023/08/16 09:17:29;;;;;;;1.55;0.80;;;;;;;39.23;23.20;102245.94;5093172;28;20127;-73
2023/08/16 09:19:55;;;;;;;1.33;0.70;;;;;;;39.82;22.06;102244.81;5091045;28;20551;-73
2023/08/16 09:22:20;;;;;;;1.02;0.57;;;;;;;39.70;23.15;102239.69;5091488;28;20036;-72
2023/08/16 09:24:46;;;;;;;5.65;1.45;;;;;;;39.34;23.31;102247.44;5087697;28;20564;-72
2023/08/16 09:27:11;;;;;;;1.05;0.70;;;;;;;39.03;23.41;102245.38;5089447;28;20031;-74
2023/08/16 09:29:40;;;;;;;1.48;0.80;;;;;;;39.03;23.07;102235.31;5078931;28;20035;-73
2023/08/16 09:32:07;;;;;;;2.80;0.80;;;;;;;38.90;23.80;102234.97;5088190;28;20031;-72
2023/08/16 09:34:33;;;;;;;0.80;0.63;;;;;;;39.99;22.79;102230.00;5089986;28;20502;-73
2023/08/16 09:37:00;;;;;;;1.30;0.73;;;;;;;38.13;23.49;102232.34;5089265;28;20024;-73
2023/08/16 09:39:27;;;;;;;2.08;0.93;;;;;;;37.23;25.13;102236.19;5089324;28;20027;-73
2023/08/16 09:41:52;;;;;;;0.88;0.88;;;;;;;37.42;24.61;102223.41;5089887;28;20056;-73
2023/08/16 09:44:19;;;;;;;0.98;0.70;;;;;;;35.05;26.74;102227.44;5090693;28;20093;-73
2023/08/16 09:46:45;;;;;;;3.75;1.10;;;;;;;34.71;28.86;102221.53;5090356;28;20020;-72
2023/08/16 09:49:11;;;;;;;1.95;0.80;;;;;;;36.46;25.65;102227.59;5088396;28;20055;-72
2023/08/16 09:51:41;;;;;;;1.55;0.80;;;;;;;35.38;27.97;102222.56;5073560;28;20516;-72
2023/08/16 09:54:13;;;;;;;2.30;0.90;;;;;;;35.42;27.26;102223.97;5070301;28;20492;-73
2023/08/16 09:56:40;;;;;;;1.15;0.70;;;;;;;35.97;26.14;102220.53;5085654;28;20024;-73
2023/08/16 09:59:10;;;;;;;1.02;0.80;;;;;;;34.45;27.13;102230.19;5088755;28;20131;-72
2023/08/16 10:01:37;;;;;;;1.95;1.02;;;;;;;34.84;26.82;102219.41;5086421;28;20181;-72
2023/08/16 10:04:02;;;;;;;0.82;0.70;;;;;;;35.55;25.56;102223.66;5083400;28;20089;-73
2023/08/16 10:06:32;;;;;;;1.95;0.95;;;;;;;34.78;27.53;102230.81;5084839;28;20118;-72
2023/08/16 10:08:59;;;;;;;1.65;0.77;;;;;;;33.11;28.58;102218.28;5073606;28;20024;-72
2023/08/16 10:11:24;;;;;;;3.20;0.50;;;;;;;33.87;27.91;102215.41;5082154;28;20020;-72
2023/08/16 10:13:50;;;;;;;1.15;0.90;;;;;;;33.19;29.08;102214.91;5090626;28;20024;-73
2023/08/16 10:16:18;;;;;;;1.52;0.60;;;;;;;33.62;29.49;102222.06;5072428;28;20119;-72
2023/08/16 10:18:47;;;;;;;2.88;1.33;;;;;;;33.56;29.81;102207.22;5082671;28;20032;-72
2023/08/16 10:21:17;;;;;;;1.40;0.40;;;;;;;33.54;28.19;102209.22;5090869;28;20042;-72
2023/08/16 10:23:43;;;;;;;1.83;0.50;;;;;;;34.26;27.62;102204.69;5089652;28;20429;-73
2023/08/16 10:26:14;;;;;;;1.73;0.52;;;;;;;33.97;26.93;102215.44;5089657;28;20023;-72
2023/08/16 10:28:46;;;;;;;0.80;0.45;;;;;;;32.83;28.76;102215.19;5090139;28;20475;-72
2023/08/16 10:31:14;;;;;;;0.60;0.60;;;;;;;32.15;29.19;102215.31;5078494;28;20036;-73
2023/08/16 10:33:44;;;;;;;0.63;0.63;;;;;;;32.03;29.20;102221.69;5069877;28;20020;-71
2023/08/16 10:36:11;;;;;;;1.17;0.65;;;;;;;32.57;29.43;102210.06;5080597;28;20028;-72
2023/08/16 10:38:37;;;;;;;2.92;0.70;;;;;;;33.17;27.84;102206.06;5087523;28;20027;-72
2023/08/16 10:41:09;;;;;;;1.10;0.40;;;;;;;32.13;29.50;102209.97;5089980;28;20081;-71
2023/08/16 10:43:35;;;;;;;0.60;0.50;;;;;;;33.31;29.02;102220.16;5090124;28;20024;-72
2023/08/16 10:46:01;;;;;;;1.95;0.63;;;;;;;32.53;29.08;102219.44;5090814;28;20036;-72
2023/08/16 10:48:39;;;;;;;2.35;0.60;;;;;;;32.91;28.69;102215.41;5090309;28;20020;-72
2023/08/16 10:51:07;;;;;;;0.52;0.52;;;;;;;33.61;27.82;102221.22;5079619;28;20602;-72
2023/08/16 10:53:37;;;;;;;1.30;0.75;;;;;;;33.26;28.26;102222.44;5088767;28;20024;-72
2023/08/16 10:56:07;;;;;;;0.50;0.50;;;;;;;32.93;28.96;102221.56;5085408;28;20368;-72
2023/08/16 10:58:43;;;;;;;0.50;0.50;;;;;;;32.88;28.61;102218.38;5065689;28;20091;-72
2023/08/16 11:01:09;;;;;;;1.10;0.60;;;;;;;33.70;27.73;102216.00;5035924;28;20056;-71
2023/08/16 11:03:37;;;;;;;2.85;0.50;;;;;;;32.01;28.97;102212.81;5053229;28;20063;-71
2023/08/16 11:06:12;;;;;;;3.50;0.60;;;;;;;32.25;28.85;102210.88;5051920;28;20496;-71
2023/08/16 11:08:45;;;;;;;0.60;0.50;;;;;;;31.35;30.94;102210.75;5046984;28;20163;-71
2023/08/16 11:11:12;;;;;;;1.67;0.68;;;;;;;32.46;29.62;102202.00;5052136;28;20036;-71
2023/08/16 11:13:41;;;;;;;3.55;0.60;;;;;;;31.33;29.81;102212.72;5069666;28;20020;-72
2023/08/16 11:16:09;;;;;;;1.45;0.70;;;;;;;32.58;29.42;102217.22;5053428;28;20039;-71
2023/08/16 11:18:36;;;;;;;0.93;0.60;;;;;;;32.78;29.14;102215.59;5051690;28;20032;-74
2023/08/16 11:21:03;;;;;;;0.93;0.40;;;;;;;32.92;28.62;102210.84;5069952;28;20037;-71